Time;durP1;ratioP1;P1;durP2;ratioP2;P2;SDS_P1;SDS_P2;PMS_P1;PMS_P2;Temp;Humidity;BMP_temperature;BMP_pressure;BME280_temperature;BME280_humidity;BME280_pressure;Samples;Min_cycle;Max_cycle;Signal;HPM_P1;HPM_P2
2022/06/29 00:00:33;;;;;;;;;;;;;;;23.78;54.20;101475.41;5034599;28;4357;-60
2022/06/29 00:03:00;;;;;;;;;;;;;;;23.77;54.37;101471.75;5039588;28;4290;-61
2022/06/29 00:05:26;;;;;;;;;;;;;;;23.77;54.64;101471.03;5034375;28;4251;-59
2022/06/29 00:07:54;;;;;;;;;;;;;;;23.78;54.62;101476.16;5038275;28;4219;-60
2022/06/29 00:10:20;;;;;;;;;;;;;;;23.76;54.62;101466.66;5035927;28;4041;-59
2022/06/29 00:12:46;;;;;;;;;;;;;;;23.75;54.72;101468.03;5027158;28;4129;-60
2022/06/29 00:15:13;;;;;;;;;;;;;;;23.80;54.70;101458.91;5037885;28;4264;-59
2022/06/29 00:17:39;;;;;;;;;;;;;;;23.79;54.70;101460.28;5035635;28;4102;-60
2022/06/29 00:20:06;;;;;;;;;;;;;;;23.72;54.72;101449.84;5035337;28;4186;-59
2022/06/29 00:22:32;;;;;;;;;;;;;;;23.75;54.57;101457.22;5033378;28;4347;-59
2022/06/29 00:24:59;;;;;;;;;;;;;;;23.74;54.92;101464.41;5035490;28;4192;-59
2022/06/29 00:27:25;;;;;;;;;;;;;;;23.73;54.99;101457.13;5035777;28;4168;-59
2022/06/29 00:29:51;;;;;;;;;;;;;;;23.76;54.89;101455.81;5031592;28;4239;-60
2022/06/29 00:32:18;;;;;;;;;;;;;;;23.76;54.62;101455.81;5034817;28;4432;-60
2022/06/29 00:34:44;;;;;;;;;;;;;;;23.75;55.01;101448.53;5032692;28;4318;-59
2022/06/29 00:37:11;;;;;;;;;;;;;;;23.76;54.70;101438.47;5037128;28;4080;-59
2022/06/29 00:39:37;;;;;;;;;;;;;;;23.76;54.80;101434.84;5036512;28;4051;-60
2022/06/29 00:42:03;;;;;;;;;;;;;;;23.79;54.75;101433.53;5034216;28;4141;-59
2022/06/29 00:44:30;;;;;;;;;;;;;;;23.77;54.88;101428.38;5032944;28;4661;-59
2022/06/29 00:46:57;;;;;;;;;;;;;;;23.75;54.85;101416.72;5033819;28;5269;-59
2022/06/29 00:49:25;;;;;;;;;;;;;;;23.70;55.15;101417.94;5031192;28;4235;-60
2022/06/29 00:52:08;;;;;;;;;;;;;;;23.74;55.07;101428.94;5035353;28;5314;-60
2022/06/29 00:54:42;;;;;;;;;;;;;;;23.69;54.83;101425.16;5028943;28;4176;-59
2022/06/29 00:57:14;;;;;;;;;;;;;;;23.67;55.04;101427.94;5034872;28;5295;-59
2022/06/29 00:59:42;;;;;;;;;;;;;;;23.69;55.03;101421.53;5037709;28;4274;-59
2022/06/29 01:02:09;;;;;;;;;;;;;;;23.71;54.99;101415.78;5031274;28;4097;-60
2022/06/29 01:04:35;;;;;;;;;;;;;;;23.72;55.07;101412.25;5035244;28;4243;-59
2022/06/29 01:07:02;;;;;;;;;;;;;;;23.71;55.20;101419.44;5034229;28;4319;-60
2022/06/29 01:09:28;;;;;;;;;;;;;;;23.71;55.14;101416.56;5029208;28;4213;-60
2022/06/29 01:11:54;;;;;;;;;;;;;;;23.70;55.13;101408.53;5029708;28;4252;-59
2022/06/29 01:14:21;;;;;;;;;;;;;;;23.74;55.04;101406.59;5032167;28;4077;-59
2022/06/29 01:16:47;;;;;;;;;;;;;;;23.74;55.00;101412.38;5033427;28;5454;-59
2022/06/29 01:19:14;;;;;;;;;;;;;;;23.70;55.08;101406.38;5031113;28;5268;-61
2022/06/29 01:21:41;;;;;;;;;;;;;;;23.72;54.74;101409.34;5028495;28;4275;-59
2022/06/29 01:24:07;;;;;;;;;;;;;;;23.71;54.82;101413.66;5031639;28;4279;-59
2022/06/29 01:26:33;;;;;;;;;;;;;;;23.67;54.99;101401.94;5028219;28;5363;-59
2022/06/29 01:29:00;;;;;;;;;;;;;;;23.69;55.14;101402.00;5033918;28;5514;-60
2022/06/29 01:31:26;;;;;;;;;;;;;;;23.66;55.03;101396.78;5025542;28;4261;-59
2022/06/29 01:33:53;;;;;;;;;;;;;;;23.62;55.05;101394.50;5034846;28;4025;-60
2022/06/29 01:36:19;;;;;;;;;;;;;;;23.65;55.09;101401.84;5033086;28;4191;-59
2022/06/29 01:38:45;;;;;;;;;;;;;;;23.69;54.85;101404.91;5032273;28;4364;-60
2022/06/29 01:41:12;;;;;;;;;;;;;;;23.68;54.88;101409.19;5033980;28;5315;-60
2022/06/29 01:43:38;;;;;;;;;;;;;;;23.68;55.02;101403.41;5028873;28;4170;-59
2022/06/29 01:46:05;;;;;;;;;;;;;;;23.67;54.93;101407.72;5032743;28;4032;-59
2022/06/29 01:48:31;;;;;;;;;;;;;;;23.67;54.95;101407.72;5034195;28;5313;-59
2022/06/29 01:50:58;;;;;;;;;;;;;;;23.67;55.17;101409.88;5033889;28;4173;-60
2022/06/29 01:53:24;;;;;;;;;;;;;;;23.67;54.98;101413.50;5033434;28;4211;-60
2022/06/29 01:55:50;;;;;;;;;;;;;;;23.64;55.15;101406.16;5054182;28;4294;-60
2022/06/29 01:58:17;;;;;;;;;;;;;;;23.66;55.35;101405.47;5053162;28;4197;-60
2022/06/29 02:00:44;;;;;;;;;;;;;;;23.66;55.23;101399.69;5046025;28;4260;-60
2022/06/29 02:03:13;;;;;;;;;;;;;;;23.63;55.23;101401.75;5053041;28;4159;-59
2022/06/29 02:05:39;;;;;;;;;;;;;;;23.62;55.34;101403.91;5056709;28;4883;-60
2022/06/29 02:08:06;;;;;;;;;;;;;;;23.62;55.37;101403.16;5055558;28;4238;-60
2022/06/29 02:10:32;;;;;;;;;;;;;;;23.61;55.21;101398.78;5053413;28;5446;-59
2022/06/29 02:12:58;;;;;;;;;;;;;;;23.61;55.22;101410.34;5054169;28;4308;-60
2022/06/29 02:15:25;;;;;;;;;;;;;;;23.58;55.05;101403.72;5054935;28;4350;-59
2022/06/29 02:17:51;;;;;;;;;;;;;;;23.58;55.05;101394.31;5051128;28;5309;-60
2022/06/29 02:20:17;;;;;;;;;;;;;;;23.60;55.05;101405.97;5049320;28;4396;-60
2022/06/29 02:22:44;;;;;;;;;;;;;;;23.58;54.95;101395.06;5055076;28;4234;-59
2022/06/29 02:25:10;;;;;;;;;;;;;;;23.58;54.98;101397.94;5052616;28;4433;-60
2022/06/29 02:27:40;;;;;;;;;;;;;;;23.57;54.92;101399.38;5051130;28;4223;-59
2022/06/29 02:30:08;;;;;;;;;;;;;;;23.57;54.99;101410.16;5054299;28;4239;-60
2022/06/29 02:35:19;;;;;;;;;;;;;;;23.55;55.18;101398.53;5055437;28;4231;-60
2022/06/29 02:37:46;;;;;;;;;;;;;;;23.55;54.97;101402.16;5051152;28;4016;-59
2022/06/29 02:40:12;;;;;;;;;;;;;;;23.55;54.90;101413.00;5053924;28;5281;-60
2022/06/29 02:42:38;;;;;;;;;;;;;;;23.53;54.89;101410.00;5047229;28;4195;-60
2022/06/29 02:45:25;;;;;;;;;;;;;;;23.53;55.14;101421.56;5045786;28;5235;-59
2022/06/29 02:47:51;;;;;;;;;;;;;;;23.51;55.13;101412.81;5049814;28;4269;-60
2022/06/29 02:50:17;;;;;;;;;;;;;;;23.50;55.01;101417.09;5054534;28;5312;-60
2022/06/29 02:52:44;;;;;;;;;;;;;;;23.48;55.44;101411.22;5057800;28;4234;-59
2022/06/29 02:55:10;;;;;;;;;;;;;;;23.46;55.02;101411.91;5059680;28;4268;-59
2022/06/29 02:57:36;;;;;;;;;;;;;;;23.46;55.02;101405.38;5059414;28;4207;-59
2022/06/29 03:00:03;;;;;;;;;;;;;;;23.45;55.41;101409.66;5056789;28;4500;-60
2022/06/29 03:02:29;;;;;;;;;;;;;;;23.44;55.25;101413.97;5050665;28;5434;-60
2022/06/29 03:04:56;;;;;;;;;;;;;;;23.44;55.16;101408.19;5053603;28;4272;-59
2022/06/29 03:07:22;;;;;;;;;;;;;;;23.44;55.43;101403.16;5055949;28;4239;-59
2022/06/29 03:09:49;;;;;;;;;;;;;;;23.42;55.33;101417.50;5047719;28;4079;-59
2022/06/29 03:12:15;;;;;;;;;;;;;;;23.42;55.71;101415.34;5058453;28;4320;-59
2022/06/29 03:14:42;;;;;;;;;;;;;;;23.42;55.55;101412.47;5051847;28;4290;-59
2022/06/29 03:17:08;;;;;;;;;;;;;;;23.39;55.64;101404.38;5053247;28;5470;-59
2022/06/29 03:19:35;;;;;;;;;;;;;;;23.40;55.37;101400.81;5055465;28;5264;-60
2022/06/29 03:22:01;;;;;;;;;;;;;;;23.36;55.42;101403.53;5057368;28;4328;-59
2022/06/29 03:24:27;;;;;;;;;;;;;;;23.35;55.73;101404.94;5055948;28;4233;-59
2022/06/29 03:26:54;;;;;;;;;;;;;;;23.36;55.63;101402.78;5056523;28;4267;-59
2022/06/29 03:29:20;;;;;;;;;;;;;;;23.35;55.68;101407.81;5054833;28;4222;-59
2022/06/29 03:31:46;;;;;;;;;;;;;;;23.35;55.58;101404.94;5056449;28;4247;-59
2022/06/29 03:34:13;;;;;;;;;;;;;;;23.34;55.58;101400.56;5054034;28;4257;-60
2022/06/29 03:36:39;;;;;;;;;;;;;;;23.27;55.75;101392.28;5056918;28;5297;-59
2022/06/29 03:39:06;;;;;;;;;;;;;;;23.27;56.19;101401.69;5055757;28;5399;-59
2022/06/29 03:41:32;;;;;;;;;;;;;;;23.28;55.99;101405.34;5053089;28;4746;-59
2022/06/29 03:43:58;;;;;;;;;;;;;;;23.25;56.25;101403.75;5057835;28;4298;-60
2022/06/29 03:46:25;;;;;;;;;;;;;;;23.17;56.62;101401.25;5050192;28;4217;-60
2022/06/29 03:48:51;;;;;;;;;;;;;;;23.23;56.62;101412.31;5052525;28;4116;-60
2022/06/29 03:51:18;;;;;;;;;;;;;;;23.17;56.89;101404.16;5054187;28;6596;-60
2022/06/29 03:53:44;;;;;;;;;;;;;;;23.18;57.03;101405.63;5056363;28;4190;-59
2022/06/29 03:56:10;;;;;;;;;;;;;;;23.20;57.00;101402.84;5056049;28;4163;-59
2022/06/29 03:58:37;;;;;;;;;;;;;;;23.21;57.30;101398.56;5053619;28;4175;-59
2022/06/29 04:01:09;;;;;;;;;;;;;;;23.20;57.15;101402.84;5055119;28;4250;-59
2022/06/29 04:03:35;;;;;;;;;;;;;;;23.24;57.13;101414.56;5056705;28;4186;-59
2022/06/29 04:06:01;;;;;;;;;;;;;;;23.25;57.64;101416.06;5054648;28;4159;-59
2022/06/29 04:08:28;;;;;;;;;;;;;;;23.22;57.56;101420.25;5054369;28;4254;-59
2022/06/29 04:10:54;;;;;;;;;;;;;;;23.16;57.54;101414.97;5053804;28;4246;-59
2022/06/29 04:13:22;;;;;;;;;;;;;;;23.15;57.78;101418.50;5050423;28;4263;-59
2022/06/29 04:15:49;;;;;;;;;;;;;;;23.23;57.66;101424.66;5050929;28;4227;-59
2022/06/29 04:18:15;;;;;;;;;;;;;;;23.21;57.64;101425.31;5048621;28;4185;-60
2022/06/29 04:23:27;;;;;;;;;;;;;;;23.22;57.78;101423.16;5050480;28;4157;-59
2022/06/29 04:25:53;;;;;;;;;;;;;;;22.83;59.26;101430.06;5048024;28;4254;-60
2022/06/29 04:28:20;;;;;;;;;;;;;;;22.95;59.06;101439.31;5051370;28;5273;-59
2022/06/29 04:30:46;;;;;;;;;;;;;;;22.78;59.32;101431.28;5045774;28;4231;-58
2022/06/29 04:33:12;;;;;;;;;;;;;;;22.79;59.75;101435.66;5053611;28;5350;-58
2022/06/29 04:35:39;;;;;;;;;;;;;;;22.84;59.53;101425.81;5051377;28;4208;-58
2022/06/29 04:38:05;;;;;;;;;;;;;;;22.84;59.33;101428.69;5050728;28;5298;-62
2022/06/29 04:40:31;;;;;;;;;;;;;;;22.74;59.85;101426.06;5048009;28;4386;-65
2022/06/29 04:42:58;;;;;;;;;;;;;;;22.73;59.73;101432.50;5045272;28;4087;-67
2022/06/29 04:48:12;;;;;;;;;;;;;;;22.80;59.56;101435.00;5050475;28;4140;-64
2022/06/29 04:50:38;;;;;;;;;;;;;;;22.83;59.36;101430.06;5056693;28;4149;-63
2022/06/29 04:53:04;;;;;;;;;;;;;;;22.86;59.13;101439.56;5055620;28;4243;-64
2022/06/29 04:55:31;;;;;;;;;;;;;;;22.80;59.45;101434.28;5056256;28;5198;-63
2022/06/29 04:57:57;;;;;;;;;;;;;;;22.79;59.65;101433.53;5057429;28;4338;-63
2022/06/29 05:00:24;;;;;;;;;;;;;;;22.75;59.92;101442.00;5056270;28;4209;-63
2022/06/29 05:02:50;;;;;;;;;;;;;;;22.83;59.69;101447.41;5055627;28;4224;-64
2022/06/29 05:05:17;;;;;;;;;;;;;;;22.82;59.47;101440.16;5057204;28;4175;-64
2022/06/29 05:07:43;;;;;;;;;;;;;;;22.88;59.43;101440.41;5056229;28;4259;-65
2022/06/29 05:10:10;;;;;;;;;;;;;;;22.82;59.67;101434.38;5057260;28;4148;-64
2022/06/29 05:12:38;;;;;;;;;;;;;;;22.83;59.60;101432.97;5056452;28;4154;-63
2022/06/29 05:15:07;;;;;;;;;;;;;;;22.87;59.43;101430.25;5054123;28;4284;-64
2022/06/29 05:17:36;;;;;;;;;;;;;;;22.88;59.45;101431.00;5057092;28;4187;-63
2022/06/29 05:20:03;;;;;;;;;;;;;;;22.86;59.47;101428.78;5056313;28;4199;-63
2022/06/29 05:22:30;;;;;;;;;;;;;;;22.82;59.36;101433.63;5056662;28;4202;-64
2022/06/29 05:24:56;;;;;;;;;;;;;;;22.52;59.75;101436.59;5054813;28;4349;-64
2022/06/29 05:27:22;;;;;;;;;;;;;;;22.71;59.50;101430.28;5053342;28;4229;-63
2022/06/29 05:29:49;;;;;;;;;;;;;;;22.24;60.57;101424.44;5056465;28;4227;-63
2022/06/29 05:32:15;;;;;;;;;;;;;;;21.49;62.45;101422.25;5054924;28;4172;-63
2022/06/29 05:34:41;;;;;;;;;;;;;;;21.50;63.62;101410.06;5056874;28;4573;-62
2022/06/29 05:37:08;;;;;;;;;;;;;;;21.31;63.39;101417.00;5053790;28;4197;-63
2022/06/29 05:39:34;;;;;;;;;;;;;;;21.62;62.29;101415.69;5056326;28;5245;-62
2022/06/29 05:42:00;;;;;;;;;;;;;;;21.46;62.27;101415.63;5054167;28;4181;-61
2022/06/29 05:44:27;;;;;;;;;;;;;;;21.33;62.41;101414.22;5054577;28;4187;-64
2022/06/29 05:46:53;;;;;;;;;;;;;;;21.38;61.91;101408.69;5052593;28;4197;-62
2022/06/29 05:49:20;;;;;;;;;;;;;;;21.69;62.36;101396.56;5051990;28;5298;-62
2022/06/29 05:51:46;;;;;;;;;;;;;;;21.72;61.32;101406.81;5052600;28;5358;-62
2022/06/29 05:54:12;;;;;;;;;;;;;;;21.79;60.41;101416.50;5052708;28;4246;-62
2022/06/29 05:56:40;;;;;;;;;;;;;;;21.81;60.39;101408.72;5055149;28;4224;-63
2022/06/29 05:59:06;;;;;;;;;;;;;;;22.06;60.82;101404.09;5053005;28;4282;-62
2022/06/29 06:01:32;;;;;;;;;;;;;;;21.95;60.71;101403.63;5053362;28;4307;-63
2022/06/29 06:03:59;;;;;;;;;;;;;;;22.02;59.78;101407.56;5050715;28;4239;-61
2022/06/29 06:06:25;;;;;;;;;;;;;;;22.20;57.97;101401.19;5054137;28;4402;-62
2022/06/29 06:08:52;;;;;;;;;;;;;;;22.30;56.47;101393.00;5055286;28;4239;-62
2022/06/29 06:11:18;;;;;;;;;;;;;;;22.42;56.50;101405.13;5054696;28;5424;-64
2022/06/29 06:13:44;;;;;;;;;;;;;;;22.47;56.05;101400.28;5055693;28;4263;-65
2022/06/29 06:16:11;;;;;;;;;;;;;;;22.48;56.70;101405.41;5054192;28;4153;-59
2022/06/29 06:18:57;;;;;;;;;;;;;;;22.58;57.20;101399.34;5054290;28;4285;-62
2022/06/29 06:21:23;;;;;;;;;;;;;;;22.68;57.21;101396.19;5051025;28;4152;-62
2022/06/29 06:23:50;;;;;;;;;;;;;;;22.71;57.50;101395.63;5055436;28;5286;-62
2022/06/29 06:26:16;;;;;;;;;;;;;;;22.77;56.92;101390.13;5055187;28;6306;-63
2022/06/29 06:28:42;;;;;;;;;;;;;;;22.83;57.01;101386.03;5056881;28;4204;-62
2022/06/29 06:31:09;;;;;;;;;;;;;;;22.86;56.80;101387.59;5056053;28;4221;-62
2022/06/29 06:33:35;;;;;;;;;;;;;;;22.88;56.83;101388.44;5056117;28;4213;-62
2022/06/29 06:36:02;;;;;;;;;;;;;;;22.89;56.83;101389.19;5054428;28;4287;-62
2022/06/29 06:38:28;;;;;;;;;;;;;;;22.91;57.23;101392.91;5054993;28;4302;-62
2022/06/29 06:43:39;;;;;;;;;;;;;;;22.97;56.84;101381.59;5054324;28;4198;-63
2022/06/29 06:46:05;;;;;;;;;;;;;;;23.00;57.23;101379.59;5055283;28;5372;-62
2022/06/29 06:48:32;;;;;;;;;;;;;;;23.00;56.94;101379.59;5055153;28;4180;-62
2022/06/29 06:50:58;;;;;;;;;;;;;;;23.02;57.30;101388.34;5055950;28;4169;-62
2022/06/29 06:53:26;;;;;;;;;;;;;;;23.03;57.12;101371.75;5055369;28;5427;-62
2022/06/29 06:55:52;;;;;;;;;;;;;;;23.02;57.07;101371.03;5055860;28;5267;-62
2022/06/29 06:58:19;;;;;;;;;;;;;;;23.05;57.10;101374.75;5054884;28;4124;-63
2022/06/29 07:00:45;;;;;;;;;;;;;;;23.06;57.10;101382.00;5054508;28;4118;-62
2022/06/29 07:03:11;;;;;;;;;;;;;;;23.07;57.16;101378.47;5054211;28;4119;-63
2022/06/29 07:05:38;;;;;;;;;;;;;;;23.06;57.10;101376.97;5054536;28;4121;-62
2022/06/29 07:08:04;;;;;;;;;;;;;;;23.09;57.29;101369.13;5053385;28;4219;-61
2022/06/29 07:10:30;;;;;;;;;;;;;;;23.09;57.38;101380.69;5052761;28;4178;-62
2022/06/29 07:12:57;;;;;;;;;;;;;;;23.11;57.21;101377.88;5052374;28;5253;-62
2022/06/29 07:15:23;;;;;;;;;;;;;;;23.12;57.12;101379.38;5054769;28;4110;-62
2022/06/29 07:17:50;;;;;;;;;;;;;;;23.12;57.03;101379.38;5052102;28;4251;-66
2022/06/29 07:20:16;;;;;;;;;;;;;;;23.12;56.70;101367.81;5052120;28;6405;-68
2022/06/29 07:22:42;;;;;;;;;;;;;;;23.13;55.86;101369.31;5054086;28;5298;-59
2022/06/29 07:25:09;;;;;;;;;;;;;;;23.13;55.45;101369.31;5053687;28;4257;-66
2022/06/29 07:27:35;;;;;;;;;;;;;;;23.15;55.03;101372.28;5051929;28;4277;-62
2022/06/29 07:30:02;;;;;;;;;;;;;;;23.14;55.19;101373.69;5054194;28;4237;-62
2022/06/29 07:32:28;;;;;;;;;;;;;;;23.13;53.59;101369.31;5053939;28;4233;-61
2022/06/29 07:34:55;;;;;;;;;;;;;;;23.15;54.29;101372.28;5049344;28;5381;-61
2022/06/29 07:37:21;;;;;;;;;;;;;;;23.16;53.06;101356.47;5056511;28;4205;-63
2022/06/29 07:39:47;;;;;;;;;;;;;;;23.15;52.83;101369.41;5056433;28;4262;-64
2022/06/29 07:42:35;;;;;;;;;;;;;;;23.14;52.64;101365.03;5059444;28;4231;-63
2022/06/29 07:45:02;;;;;;;;;;;;;;;23.14;52.05;101365.03;5059199;28;4229;-63
2022/06/29 07:47:29;;;;;;;;;;;;;;;23.14;51.33;101370.81;5057434;28;4215;-63
2022/06/29 07:49:55;;;;;;;;;;;;;;;23.16;51.27;101359.34;5057688;28;4298;-63
2022/06/29 07:52:21;;;;;;;;;;;;;;;23.16;50.98;101362.97;5056477;28;4116;-63
2022/06/29 07:54:48;;;;;;;;;;;;;;;23.18;50.50;101365.19;5056958;28;5074;-65
2022/06/29 07:57:14;;;;;;;;;;;;;;;23.19;50.13;101344.31;5057333;28;5543;-62
2022/06/29 07:59:42;;;;;;;;;;;;;;;23.22;50.14;101348.03;5057579;28;4259;-62
2022/06/29 08:02:08;;;;;;;;;;;;;;;23.20;50.49;101351.59;5058564;28;4425;-62
2022/06/29 08:04:35;;;;;;;;;;;;;;;23.22;50.18;101348.03;5057803;28;5205;-62
2022/06/29 08:07:21;;;;;;;;;;;;;;;23.23;50.15;101349.53;5056970;28;4276;-62
2022/06/29 08:09:48;;;;;;;;;;;;;;;23.24;50.21;101348.13;5056449;28;5573;-62
2022/06/29 08:12:16;;;;;;;;;;;;;;;23.25;49.82;101351.75;5054100;28;4079;-63
2022/06/29 08:14:42;;;;;;;;;;;;;;;23.24;49.32;101345.22;5057705;28;4294;-62
2022/06/29 08:17:08;;;;;;;;;;;;;;;23.25;48.96;101340.94;5057944;28;4185;-62
2022/06/29 08:19:35;;;;;;;;;;;;;;;23.26;48.89;101341.69;5056562;28;4157;-62
2022/06/29 08:22:02;;;;;;;;;;;;;;;23.26;48.90;101345.31;5058014;28;4129;-63
2022/06/29 08:24:28;;;;;;;;;;;;;;;23.25;48.51;101349.63;5056864;28;4159;-62
2022/06/29 08:26:54;;;;;;;;;;;;;;;23.26;48.65;101356.88;5057241;28;5227;-62
2022/06/29 08:29:41;;;;;;;;;;;;;;;23.27;48.39;101346.78;5056706;28;4186;-62
2022/06/29 08:32:07;;;;;;;;;;;;;;;23.27;48.47;101349.69;5057413;28;4181;-63
2022/06/29 08:34:37;;;;;;;;;;;;;;;23.29;48.43;101349.03;5057417;28;5445;-62
2022/06/29 08:37:04;;;;;;;;;;;;;;;23.30;48.29;101348.38;5058182;28;5330;-62
2022/06/29 08:39:30;;;;;;;;;;;;;;;23.32;48.26;101344.81;5056960;28;4286;-62
2022/06/29 08:41:59;;;;;;;;;;;;;;;23.31;47.81;101344.06;5058009;28;4196;-62
2022/06/29 08:44:26;;;;;;;;;;;;;;;23.31;47.49;101344.06;5057531;28;5346;-62
2022/06/29 08:46:52;;;;;;;;;;;;;;;23.31;47.18;101349.84;5057767;28;4447;-62
2022/06/29 08:49:19;;;;;;;;;;;;;;;23.31;47.21;101343.34;5054527;28;4143;-62
2022/06/29 08:51:45;;;;;;;;;;;;;;;23.33;46.92;101335.50;5058254;28;4123;-64
2022/06/29 08:54:13;;;;;;;;;;;;;;;23.31;46.75;101338.28;5055059;28;4077;-62
2022/06/29 08:56:40;;;;;;;;;;;;;;;23.33;47.40;101335.50;5055908;28;5733;-61
2022/06/29 08:59:06;;;;;;;;;;;;;;;23.33;46.79;101341.28;5049591;28;4093;-62
2022/06/29 09:01:32;;;;;;;;;;;;;;;23.33;46.34;101338.38;5058716;28;4156;-62
2022/06/29 09:03:59;;;;;;;;;;;;;;;23.33;46.14;101344.16;5057466;28;4378;-62
2022/06/29 09:06:25;;;;;;;;;;;;;;;23.34;45.38;101339.88;5056508;28;4334;-62
2022/06/29 09:08:52;;;;;;;;;;;;;;;23.34;45.82;101339.88;5057556;28;4205;-62
2022/06/29 09:11:25;;;;;;;;;;;;;;;23.35;45.86;101338.47;5056635;28;4197;-62
2022/06/29 09:14:10;;;;;;;;;;;;;;;23.34;45.32;101334.09;5056314;28;4236;-61
2022/06/29 09:16:48;;;;;;;;;;;;;;;23.35;44.56;101332.69;5055391;28;4170;-61
2022/06/29 09:19:15;;;;;;;;;;;;;;;23.36;44.20;101342.09;5055631;28;4538;-61
2022/06/29 09:21:48;;;;;;;;;;;;;;;23.36;43.83;101345.00;5055980;28;4147;-62
2022/06/29 09:24:15;;;;;;;;;;;;;;;23.37;43.59;101334.94;5056814;28;4224;-62
2022/06/29 09:26:41;;;;;;;;;;;;;;;23.38;43.67;101330.63;5056188;28;4354;-62
2022/06/29 09:29:17;;;;;;;;;;;;;;;23.37;43.74;101332.78;5056896;28;4287;-62
2022/06/29 09:31:44;;;;;;;;;;;;;;;23.40;44.06;101330.72;5053625;28;4145;-63
2022/06/29 09:34:17;;;;;;;;;;;;;;;23.41;43.14;101320.66;5059618;28;4166;-63
2022/06/29 09:36:53;;;;;;;;;;;;;;;23.42;44.09;101325.75;5056161;28;4189;-63
2022/06/29 09:39:32;;;;;;;;;;;;;;;23.44;44.22;101321.47;5055751;28;4286;-61
2022/06/29 09:41:59;;;;;;;;;;;;;;;23.44;43.48;101316.44;5056986;28;4156;-61
2022/06/29 09:44:25;;;;;;;;;;;;;;;23.45;43.55;101302.72;5056112;28;4244;-62
2022/06/29 09:46:53;;;;;;;;;;;;;;;23.45;42.76;101314.28;5057633;28;5282;-62
2022/06/29 09:49:19;;;;;;;;;;;;;;;23.41;43.62;101306.19;5063662;28;5221;-62
2022/06/29 09:51:46;;;;;;;;;;;;;;;23.41;43.52;101306.94;5055103;28;4231;-62
2022/06/29 09:54:15;;;;;;;;;;;;;;;23.43;43.48;101312.03;5055334;28;4350;-63
2022/06/29 09:56:45;;;;;;;;;;;;;;;23.44;43.26;101293.31;5061549;28;4213;-62
2022/06/29 09:59:11;;;;;;;;;;;;;;;23.47;42.34;101297.03;5055209;28;5229;-61
2022/06/29 10:04:23;;;;;;;;;;;;;;;23.49;42.51;101294.22;5055701;28;4155;-61
2022/06/29 10:06:49;;;;;;;;;;;;;;;23.48;42.78;101293.47;5055068;28;5319;-61
2022/06/29 10:09:15;;;;;;;;;;;;;;;23.49;41.91;101294.97;5054950;28;4328;-61
2022/06/29 10:14:34;;;;;;;;;;;;;;;23.69;42.53;101282.72;5055069;28;4167;-58
2022/06/29 10:17:03;;;;;;;;;;;;;;;23.77;42.37;101283.06;5055442;28;4211;-61
2022/06/29 10:19:34;;;;;;;;;;;;;;;23.71;42.47;101280.66;5053336;28;4179;-61
2022/06/29 10:22:01;;;;;;;;;;;;;;;23.69;42.29;101276.94;5055815;28;4220;-60
2022/06/29 10:24:28;;;;;;;;;;;;;;;23.69;42.62;101276.94;5055869;28;4019;-60
2022/06/29 10:26:54;;;;;;;;;;;;;;;23.73;42.55;101277.09;5056596;28;5216;-61
2022/06/29 10:29:21;;;;;;;;;;;;;;;23.70;42.59;101276.25;5056101;28;5340;-59
2022/06/29 10:31:50;;;;;;;;;;;;;;;23.67;42.90;101279.75;5057028;28;4383;-60
2022/06/29 10:34:41;;;;;;;;;;;;;;;23.66;43.08;101281.88;5055492;28;4148;-60
2022/06/29 10:37:11;;;;;;;;;;;;;;;23.69;43.17;101277.69;5056112;28;5499;-61
2022/06/29 10:39:48;;;;;;;;;;;;;;;23.66;43.26;101270.31;5054234;28;4198;-61
2022/06/29 10:45:18;;;;;;;;;;;;;;;23.67;44.12;101271.09;5055203;28;5231;-62
2022/06/29 10:47:48;;;;;;;;;;;;;;;23.67;44.24;101268.94;5050593;28;4195;-57
2022/06/29 10:50:14;;;;;;;;;;;;;;;23.67;44.70;101268.94;5050064;28;4286;-63
2022/06/29 10:52:41;;;;;;;;;;;;;;;23.67;44.60;101274.72;5051181;28;5602;-58
2022/06/29 10:55:08;;;;;;;;;;;;;;;23.66;45.22;101272.47;5053081;28;4243;-57
2022/06/29 10:57:34;;;;;;;;;;;;;;;23.63;45.41;101275.28;5055195;28;5685;-58
2022/06/29 11:00:04;;;;;;;;;;;;;;;23.63;45.77;101265.88;5055280;28;5648;-57
2022/06/29 11:02:31;;;;;;;;;;;;;;;23.62;45.71;101261.50;5054502;28;4592;-57
2022/06/29 11:04:57;;;;;;;;;;;;;;;23.63;46.16;101257.19;5056008;28;5497;-57
2022/06/29 11:12:54;;;;;;;;;;;;;;;23.63;46.81;101262.97;5057649;28;4152;-57
2022/06/29 11:15:39;;;;;;;;;;;;;;;23.64;46.66;101261.59;5057420;28;5582;-58
2022/06/29 11:18:11;;;;;;;;;;;;;;;23.64;47.07;101264.47;5058960;28;4189;-58
2022/06/29 11:20:38;;;;;;;;;;;;;;;23.65;47.10;101260.16;5059492;28;5583;-57
2022/06/29 11:23:07;;;;;;;;;;;;;;;23.66;47.32;101258.75;5058454;28;5639;-57
2022/06/29 11:25:34;;;;;;;;;;;;;;;23.67;47.58;101250.84;5057237;28;5165;-57
2022/06/29 11:28:01;;;;;;;;;;;;;;;23.68;47.73;101240.75;5058835;28;4193;-56
2022/06/29 11:30:27;;;;;;;;;;;;;;;23.67;47.86;101240.00;5057230;28;5631;-57
2022/06/29 11:32:54;;;;;;;;;;;;;;;23.68;48.03;101238.59;5058518;28;4435;-57
2022/06/29 11:35:23;;;;;;;;;;;;;;;23.70;48.08;101240.84;5057632;28;4630;-58
2022/06/29 11:37:50;;;;;;;;;;;;;;;23.70;48.15;101235.78;5058258;28;5600;-56
2022/06/29 11:40:17;;;;;;;;;;;;;;;23.70;48.32;101232.91;5057778;28;4512;-56
2022/06/29 11:45:36;;;;;;;;;;;;;;;23.71;48.52;101231.50;5058490;28;4168;-57
2022/06/29 11:48:09;;;;;;;;;;;;;;;23.73;48.58;101233.72;5058374;28;5384;-57
2022/06/29 11:50:41;;;;;;;;;;;;;;;23.72;48.82;101227.19;5057433;28;5498;-57
2022/06/29 11:53:07;;;;;;;;;;;;;;;23.74;48.94;101215.72;5058152;28;4722;-56
2022/06/29 11:55:40;;;;;;;;;;;;;;;23.75;48.82;101210.69;5057920;28;4706;-57
2022/06/29 11:58:10;;;;;;;;;;;;;;;23.75;48.86;101214.31;5057880;28;4190;-57
2022/06/29 12:00:37;;;;;;;;;;;;;;;23.76;48.89;101223.75;5058163;28;5311;-57
2022/06/29 12:03:03;;;;;;;;;;;;;;;23.77;49.04;101210.78;5057336;28;4180;-57
2022/06/29 12:05:30;;;;;;;;;;;;;;;23.75;49.15;101216.47;5057133;28;5316;-57
2022/06/29 12:07:56;;;;;;;;;;;;;;;23.77;49.43;101220.19;5054996;28;4183;-57
2022/06/29 12:10:22;;;;;;;;;;;;;;;23.77;49.33;101214.41;5057186;28;5149;-58
2022/06/29 12:12:49;;;;;;;;;;;;;;;23.77;49.59;101214.41;5057111;28;4251;-57
2022/06/29 12:15:16;;;;;;;;;;;;;;;23.78;49.66;101212.28;5057418;28;5722;-59
2022/06/29 12:17:43;;;;;;;;;;;;;;;23.80;49.65;101213.09;5058172;28;4607;-57
2022/06/29 12:20:15;;;;;;;;;;;;;;;23.79;49.64;101214.47;5057660;28;4660;-58
2022/06/29 12:23:01;;;;;;;;;;;;;;;23.81;49.76;101191.41;5057529;28;5604;-57
2022/06/29 12:25:33;;;;;;;;;;;;;;;23.81;49.87;101191.41;5057548;28;4133;-57
2022/06/29 12:28:00;;;;;;;;;;;;;;;23.80;49.83;101186.28;5056438;28;4242;-57
2022/06/29 12:30:26;;;;;;;;;;;;;;;23.81;49.93;101191.41;5058634;28;4789;-57
2022/06/29 12:32:53;;;;;;;;;;;;;;;23.81;50.18;101185.63;5056300;28;5524;-57
2022/06/29 12:35:19;;;;;;;;;;;;;;;23.82;50.32;101201.59;5056359;28;5987;-57
2022/06/29 12:37:46;;;;;;;;;;;;;;;23.83;50.28;101200.19;5055925;28;5607;-57
2022/06/29 12:40:12;;;;;;;;;;;;;;;23.82;50.29;101195.03;5057281;28;4203;-60
2022/06/29 12:42:39;;;;;;;;;;;;;;;23.82;50.31;101195.81;5057383;28;4143;-58
2022/06/29 12:45:07;;;;;;;;;;;;;;;23.82;50.56;101195.81;5054079;28;4605;-58
2022/06/29 12:47:33;;;;;;;;;;;;;;;23.81;50.38;101185.63;5056998;28;4164;-57
2022/06/29 12:50:00;;;;;;;;;;;;;;;23.83;50.42;101194.38;5056509;28;4367;-57
2022/06/29 12:52:26;;;;;;;;;;;;;;;23.83;50.58;101188.59;5057236;28;4009;-57
2022/06/29 12:54:53;;;;;;;;;;;;;;;23.85;50.48;101184.31;5057396;28;4288;-57
2022/06/29 12:57:19;;;;;;;;;;;;;;;23.85;50.59;101184.31;5057937;28;4231;-58
2022/06/29 12:59:46;;;;;;;;;;;;;;;23.85;50.88;101187.94;5055739;28;4226;-57
2022/06/29 13:02:12;;;;;;;;;;;;;;;23.87;50.92;101181.47;5057161;28;4197;-57
2022/06/29 13:04:38;;;;;;;;;;;;;;;23.85;51.04;101179.28;5057438;28;4157;-57
2022/06/29 13:07:05;;;;;;;;;;;;;;;23.88;50.78;101185.88;5056462;28;4339;-56
2022/06/29 13:09:31;;;;;;;;;;;;;;;23.89;50.90;101181.56;5057151;28;5701;-57
2022/06/29 13:11:57;;;;;;;;;;;;;;;23.90;50.83;101177.28;5052306;28;4210;-55
2022/06/29 13:14:25;;;;;;;;;;;;;;;23.91;51.12;101181.63;5056957;28;4039;-56
2022/06/29 13:16:51;;;;;;;;;;;;;;;23.91;51.32;101187.41;5055245;28;4257;-57